sensor_id;sensor_type;location;lat;lon;timestamp;temperature;humidity
3134;DHT22;1577;49.912;10.924;2023-05-21T00:00:11;18.40;99.90
3134;DHT22;1577;49.912;10.924;2023-05-21T00:02:38;18.40;99.90
3134;DHT22;1577;49.912;10.924;2023-05-21T00:05:04;18.40;99.90
3134;DHT22;1577;49.912;10.924;2023-05-21T00:07:30;18.40;99.90
3134;DHT22;1577;49.912;10.924;2023-05-21T00:09:58;18.50;99.90
3134;DHT22;1577;49.912;10.924;2023-05-21T00:12:24;18.50;99.90
3134;DHT22;1577;49.912;10.924;2023-05-21T00:14:50;18.40;99.90
3134;DHT22;1577;49.912;10.924;2023-05-21T00:17:16;18.40;99.90
3134;DHT22;1577;49.912;10.924;2023-05-21T00:19:42;18.40;99.90
3134;DHT22;1577;49.912;10.924;2023-05-21T00:22:08;18.40;99.90
3134;DHT22;1577;49.912;10.924;2023-05-21T00:24:34;18.40;99.90
3134;DHT22;1577;49.912;10.924;2023-05-21T00:26:59;18.40;99.90
3134;DHT22;1577;49.912;10.924;2023-05-21T00:29:25;18.40;99.90
3134;DHT22;1577;49.912;10.924;2023-05-21T00:31:52;18.40;99.90
3134;DHT22;1577;49.912;10.924;2023-05-21T00:34:18;18.40;99.90
3134;DHT22;1577;49.912;10.924;2023-05-21T00:36:44;18.40;99.90
3134;DHT22;1577;49.912;10.924;2023-05-21T00:39:11;18.30;99.90
3134;DHT22;1577;49.912;10.924;2023-05-21T00:41:37;18.40;99.90
3134;DHT22;1577;49.912;10.924;2023-05-21T00:44:08;18.40;99.90
3134;DHT22;1577;49.912;10.924;2023-05-21T00:46:34;18.30;99.90
3134;DHT22;1577;49.912;10.924;2023-05-21T00:48:59;18.40;99.90
3134;DHT22;1577;49.912;10.924;2023-05-21T00:51:25;18.40;99.90
3134;DHT22;1577;49.912;10.924;2023-05-21T00:53:55;18.40;99.90
3134;DHT22;1577;49.912;10.924;2023-05-21T00:56:23;18.40;99.90
3134;DHT22;1577;49.912;10.924;2023-05-21T00:58:49;18.30;99.90
3134;DHT22;1577;49.912;10.924;2023-05-21T01:01:18;18.30;99.90
3134;DHT22;1577;49.912;10.924;2023-05-21T01:03:44;18.30;99.90
3134;DHT22;1577;49.912;10.924;2023-05-21T01:06:10;18.30;99.90
3134;DHT22;1577;49.912;10.924;2023-05-21T01:08:38;18.20;99.90
3134;DHT22;1577;49.912;10.924;2023-05-21T01:11:06;18.20;99.90
3134;DHT22;1577;49.912;10.924;2023-05-21T01:13:35;18.20;99.90
3134;DHT22;1577;49.912;10.924;2023-05-21T01:16:02;18.10;99.90
3134;DHT22;1577;49.912;10.924;2023-05-21T01:18:31;18.10;99.90
3134;DHT22;1577;49.912;10.924;2023-05-21T01:21:02;18.10;99.90
3134;DHT22;1577;49.912;10.924;2023-05-21T01:23:28;18.10;99.90
3134;DHT22;1577;49.912;10.924;2023-05-21T01:25:54;18.10;99.90
3134;DHT22;1577;49.912;10.924;2023-05-21T01:28:20;18.10;99.90
3134;DHT22;1577;49.912;10.924;2023-05-21T01:30:46;18.10;99.90
3134;DHT22;1577;49.912;10.924;2023-05-21T01:33:34;18.10;99.90
3134;DHT22;1577;49.912;10.924;2023-05-21T01:36:08;18.10;99.90
3134;DHT22;1577;49.912;10.924;2023-05-21T01:41:17;18.10;99.90
3134;DHT22;1577;49.912;10.924;2023-05-21T01:43:45;18.10;99.90
3134;DHT22;1577;49.912;10.924;2023-05-21T01:46:14;18.10;99.90
3134;DHT22;1577;49.912;10.924;2023-05-21T01:48:42;18.10;99.90
3134;DHT22;1577;49.912;10.924;2023-05-21T01:51:08;18.00;99.90
3134;DHT22;1577;49.912;10.924;2023-05-21T01:53:34;18.00;99.90
3134;DHT22;1577;49.912;10.924;2023-05-21T01:55:59;18.00;99.90
3134;DHT22;1577;49.912;10.924;2023-05-21T01:58:27;18.00;99.90
3134;DHT22;1577;49.912;10.924;2023-05-21T02:00:52;18.00;99.90
3134;DHT22;1577;49.912;10.924;2023-05-21T02:03:19;18.00;99.90
3134;DHT22;1577;49.912;10.924;2023-05-21T02:05:45;18.00;99.90
3134;DHT22;1577;49.912;10.924;2023-05-21T02:08:11;18.00;99.90
3134;DHT22;1577;49.912;10.924;2023-05-21T02:10:39;18.00;99.90
3134;DHT22;1577;49.912;10.924;2023-05-21T02:13:05;18.00;99.90
3134;DHT22;1577;49.912;10.924;2023-05-21T02:15:30;17.90;99.90
3134;DHT22;1577;49.912;10.924;2023-05-21T02:17:58;17.90;99.90
3134;DHT22;1577;49.912;10.924;2023-05-21T02:20:24;17.90;99.90
3134;DHT22;1577;49.912;10.924;2023-05-21T02:22:49;17.80;99.90
3134;DHT22;1577;49.912;10.924;2023-05-21T02:25:16;17.80;99.90
3134;DHT22;1577;49.912;10.924;2023-05-21T02:27:43;17.80;99.90
3134;DHT22;1577;49.912;10.924;2023-05-21T02:30:10;17.80;99.90
3134;DHT22;1577;49.912;10.924;2023-05-21T02:32:36;17.70;99.90
3134;DHT22;1577;49.912;10.924;2023-05-21T02:35:04;17.70;99.90
3134;DHT22;1577;49.912;10.924;2023-05-21T02:37:30;17.70;99.90
3134;DHT22;1577;49.912;10.924;2023-05-21T02:40:00;17.70;99.90
3134;DHT22;1577;49.912;10.924;2023-05-21T02:42:26;17.70;99.90
3134;DHT22;1577;49.912;10.924;2023-05-21T02:44:52;17.60;99.90
3134;DHT22;1577;49.912;10.924;2023-05-21T02:47:19;17.60;99.90
3134;DHT22;1577;49.912;10.924;2023-05-21T02:49:45;17.60;99.90
3134;DHT22;1577;49.912;10.924;2023-05-21T02:52:11;17.50;99.90
3134;DHT22;1577;49.912;10.924;2023-05-21T02:54:37;17.50;99.90
3134;DHT22;1577;49.912;10.924;2023-05-21T02:57:02;17.50;99.90
3134;DHT22;1577;49.912;10.924;2023-05-21T02:59:28;17.50;99.90
3134;DHT22;1577;49.912;10.924;2023-05-21T03:01:53;17.50;99.90
3134;DHT22;1577;49.912;10.924;2023-05-21T03:04:19;17.50;99.90
3134;DHT22;1577;49.912;10.924;2023-05-21T03:06:48;17.40;99.90
3134;DHT22;1577;49.912;10.924;2023-05-21T03:09:16;17.40;99.90
3134;DHT22;1577;49.912;10.924;2023-05-21T03:11:42;17.40;99.90
3134;DHT22;1577;49.912;10.924;2023-05-21T03:14:07;17.40;99.90
3134;DHT22;1577;49.912;10.924;2023-05-21T03:16:34;17.40;99.90
3134;DHT22;1577;49.912;10.924;2023-05-21T03:19:00;17.40;99.90
3134;DHT22;1577;49.912;10.924;2023-05-21T03:21:26;17.30;99.90
3134;DHT22;1577;49.912;10.924;2023-05-21T03:23:54;17.30;99.90
3134;DHT22;1577;49.912;10.924;2023-05-21T03:26:26;17.30;99.90
3134;DHT22;1577;49.912;10.924;2023-05-21T03:28:52;17.30;99.90
3134;DHT22;1577;49.912;10.924;2023-05-21T03:31:18;17.20;99.90
3134;DHT22;1577;49.912;10.924;2023-05-21T03:33:44;17.20;99.90
3134;DHT22;1577;49.912;10.924;2023-05-21T03:36:09;17.20;99.90
3134;DHT22;1577;49.912;10.924;2023-05-21T03:38:35;17.30;99.90
3134;DHT22;1577;49.912;10.924;2023-05-21T03:41:01;17.30;99.90
3134;DHT22;1577;49.912;10.924;2023-05-21T03:43:26;17.30;99.90
3134;DHT22;1577;49.912;10.924;2023-05-21T03:45:53;17.20;99.90
3134;DHT22;1577;49.912;10.924;2023-05-21T03:48:19;17.20;99.90
3134;DHT22;1577;49.912;10.924;2023-05-21T03:50:45;17.20;99.90
3134;DHT22;1577;49.912;10.924;2023-05-21T03:53:10;17.30;99.90
3134;DHT22;1577;49.912;10.924;2023-05-21T03:55:36;17.30;99.90
3134;DHT22;1577;49.912;10.924;2023-05-21T03:58:02;17.20;99.90
3134;DHT22;1577;49.912;10.924;2023-05-21T04:00:28;17.30;99.90
3134;DHT22;1577;49.912;10.924;2023-05-21T04:02:53;17.20;99.90
3134;DHT22;1577;49.912;10.924;2023-05-21T04:05:19;17.30;99.90
3134;DHT22;1577;49.912;10.924;2023-05-21T04:07:44;17.30;99.90
3134;DHT22;1577;49.912;10.924;2023-05-21T04:10:14;17.30;99.90
3134;DHT22;1577;49.912;10.924;2023-05-21T04:12:40;17.30;99.90
3134;DHT22;1577;49.912;10.924;2023-05-21T04:15:06;17.40;99.90
3134;DHT22;1577;49.912;10.924;2023-05-21T04:17:31;17.40;99.90
3134;DHT22;1577;49.912;10.924;2023-05-21T04:19:59;17.40;99.90
3134;DHT22;1577;49.912;10.924;2023-05-21T04:22:24;17.50;99.90
3134;DHT22;1577;49.912;10.924;2023-05-21T04:24:52;17.50;99.90
3134;DHT22;1577;49.912;10.924;2023-05-21T04:27:20;17.50;99.90
3134;DHT22;1577;49.912;10.924;2023-05-21T04:29:48;17.50;99.90
3134;DHT22;1577;49.912;10.924;2023-05-21T04:32:14;17.60;99.90
3134;DHT22;1577;49.912;10.924;2023-05-21T04:34:45;17.60;99.90
3134;DHT22;1577;49.912;10.924;2023-05-21T04:37:10;17.60;99.90
3134;DHT22;1577;49.912;10.924;2023-05-21T04:39:36;17.70;99.90
3134;DHT22;1577;49.912;10.924;2023-05-21T04:42:02;17.70;99.90
3134;DHT22;1577;49.912;10.924;2023-05-21T04:44:28;17.70;99.90
3134;DHT22;1577;49.912;10.924;2023-05-21T04:46:54;17.70;99.90
3134;DHT22;1577;49.912;10.924;2023-05-21T04:49:21;17.70;99.90
3134;DHT22;1577;49.912;10.924;2023-05-21T04:51:47;17.80;99.90
3134;DHT22;1577;49.912;10.924;2023-05-21T04:54:17;17.80;99.90
3134;DHT22;1577;49.912;10.924;2023-05-21T04:56:42;17.90;99.90
3134;DHT22;1577;49.912;10.924;2023-05-21T04:59:08;17.90;99.90
3134;DHT22;1577;49.912;10.924;2023-05-21T05:01:34;18.00;99.90
3134;DHT22;1577;49.912;10.924;2023-05-21T05:04:02;18.10;99.90
3134;DHT22;1577;49.912;10.924;2023-05-21T05:06:28;18.10;99.90
3134;DHT22;1577;49.912;10.924;2023-05-21T05:08:54;18.10;99.90
3134;DHT22;1577;49.912;10.924;2023-05-21T05:11:19;18.20;99.90
3134;DHT22;1577;49.912;10.924;2023-05-21T05:13:45;18.30;99.90
3134;DHT22;1577;49.912;10.924;2023-05-21T05:16:11;18.50;99.90
3134;DHT22;1577;49.912;10.924;2023-05-21T05:18:37;18.50;99.90
3134;DHT22;1577;49.912;10.924;2023-05-21T05:21:02;18.60;99.90
3134;DHT22;1577;49.912;10.924;2023-05-21T05:23:28;18.60;99.90
3134;DHT22;1577;49.912;10.924;2023-05-21T05:25:54;18.70;99.90
3134;DHT22;1577;49.912;10.924;2023-05-21T05:28:19;18.80;99.90
3134;DHT22;1577;49.912;10.924;2023-05-21T05:30:45;18.90;99.90
3134;DHT22;1577;49.912;10.924;2023-05-21T05:33:10;19.00;99.90
3134;DHT22;1577;49.912;10.924;2023-05-21T05:35:36;19.10;99.90
3134;DHT22;1577;49.912;10.924;2023-05-21T05:38:02;19.20;99.90
3134;DHT22;1577;49.912;10.924;2023-05-21T05:40:27;19.30;99.90
3134;DHT22;1577;49.912;10.924;2023-05-21T05:42:53;19.40;99.90
3134;DHT22;1577;49.912;10.924;2023-05-21T05:45:19;19.50;99.90
3134;DHT22;1577;49.912;10.924;2023-05-21T05:47:45;19.60;99.90
3134;DHT22;1577;49.912;10.924;2023-05-21T05:50:11;19.80;99.90
3134;DHT22;1577;49.912;10.924;2023-05-21T05:52:36;19.90;99.90
3134;DHT22;1577;49.912;10.924;2023-05-21T05:55:02;20.00;99.90
3134;DHT22;1577;49.912;10.924;2023-05-21T05:57:28;20.10;99.90
3134;DHT22;1577;49.912;10.924;2023-05-21T05:59:54;20.30;99.90
3134;DHT22;1577;49.912;10.924;2023-05-21T06:02:20;20.40;99.90
3134;DHT22;1577;49.912;10.924;2023-05-21T06:04:46;20.50;99.90
3134;DHT22;1577;49.912;10.924;2023-05-21T06:07:11;20.70;99.90
3134;DHT22;1577;49.912;10.924;2023-05-21T06:09:37;20.80;99.90
3134;DHT22;1577;49.912;10.924;2023-05-21T06:12:06;21.00;99.90
3134;DHT22;1577;49.912;10.924;2023-05-21T06:14:32;21.20;99.90
3134;DHT22;1577;49.912;10.924;2023-05-21T06:16:58;21.20;99.90
3134;DHT22;1577;49.912;10.924;2023-05-21T06:19:23;21.10;99.90
3134;DHT22;1577;49.912;10.924;2023-05-21T06:21:49;21.00;99.90
3134;DHT22;1577;49.912;10.924;2023-05-21T06:24:14;21.00;99.90
3134;DHT22;1577;49.912;10.924;2023-05-21T06:26:40;21.10;99.90
3134;DHT22;1577;49.912;10.924;2023-05-21T06:29:06;21.10;99.90
3134;DHT22;1577;49.912;10.924;2023-05-21T06:31:32;21.20;99.90
3134;DHT22;1577;49.912;10.924;2023-05-21T06:33:59;21.30;99.90
3134;DHT22;1577;49.912;10.924;2023-05-21T06:36:25;21.40;99.90
3134;DHT22;1577;49.912;10.924;2023-05-21T06:38:57;21.50;99.90
3134;DHT22;1577;49.912;10.924;2023-05-21T06:41:23;21.70;99.90
3134;DHT22;1577;49.912;10.924;2023-05-21T06:43:48;21.70;99.90
3134;DHT22;1577;49.912;10.924;2023-05-21T06:46:14;21.90;99.90
3134;DHT22;1577;49.912;10.924;2023-05-21T06:48:40;21.90;99.90
3134;DHT22;1577;49.912;10.924;2023-05-21T06:51:05;22.10;99.90
3134;DHT22;1577;49.912;10.924;2023-05-21T06:53:31;22.50;99.90
3134;DHT22;1577;49.912;10.924;2023-05-21T06:55:56;22.70;99.90
3134;DHT22;1577;49.912;10.924;2023-05-21T06:58:22;22.90;99.90
3134;DHT22;1577;49.912;10.924;2023-05-21T07:00:48;23.10;99.70
3134;DHT22;1577;49.912;10.924;2023-05-21T07:03:14;23.50;99.60
3134;DHT22;1577;49.912;10.924;2023-05-21T07:05:40;23.60;98.90
3134;DHT22;1577;49.912;10.924;2023-05-21T07:08:05;23.80;98.80
3134;DHT22;1577;49.912;10.924;2023-05-21T07:10:31;24.20;99.00
3134;DHT22;1577;49.912;10.924;2023-05-21T07:12:57;25.00;98.80
3134;DHT22;1577;49.912;10.924;2023-05-21T07:15:22;26.00;98.20
3134;DHT22;1577;49.912;10.924;2023-05-21T07:17:48;27.20;96.20
3134;DHT22;1577;49.912;10.924;2023-05-21T07:20:13;28.10;94.20
3134;DHT22;1577;49.912;10.924;2023-05-21T07:22:40;28.50;92.80
3134;DHT22;1577;49.912;10.924;2023-05-21T07:25:07;29.00;92.10
3134;DHT22;1577;49.912;10.924;2023-05-21T07:27:33;29.30;91.20
3134;DHT22;1577;49.912;10.924;2023-05-21T07:29:59;29.30;90.60
3134;DHT22;1577;49.912;10.924;2023-05-21T07:32:24;29.00;90.00
3134;DHT22;1577;49.912;10.924;2023-05-21T07:34:51;29.10;90.80
3134;DHT22;1577;49.912;10.924;2023-05-21T07:37:17;29.30;90.50
3134;DHT22;1577;49.912;10.924;2023-05-21T07:39:43;29.30;88.00
3134;DHT22;1577;49.912;10.924;2023-05-21T07:42:08;29.30;87.40
3134;DHT22;1577;49.912;10.924;2023-05-21T07:44:34;29.20;88.10
3134;DHT22;1577;49.912;10.924;2023-05-21T07:46:59;28.90;85.60
3134;DHT22;1577;49.912;10.924;2023-05-21T07:49:25;28.30;86.60
3134;DHT22;1577;49.912;10.924;2023-05-21T07:51:50;28.30;87.30
3134;DHT22;1577;49.912;10.924;2023-05-21T07:54:16;28.00;86.80
3134;DHT22;1577;49.912;10.924;2023-05-21T07:56:42;27.90;87.80
3134;DHT22;1577;49.912;10.924;2023-05-21T07:59:08;27.50;87.10
3134;DHT22;1577;49.912;10.924;2023-05-21T08:01:33;27.50;89.10
3134;DHT22;1577;49.912;10.924;2023-05-21T08:04:01;27.30;88.40
3134;DHT22;1577;49.912;10.924;2023-05-21T08:06:30;26.90;88.30
3134;DHT22;1577;49.912;10.924;2023-05-21T08:08:55;26.70;88.90
3134;DHT22;1577;49.912;10.924;2023-05-21T08:11:21;26.60;89.30
3134;DHT22;1577;49.912;10.924;2023-05-21T08:13:47;26.60;89.80
3134;DHT22;1577;49.912;10.924;2023-05-21T08:16:13;26.70;90.20
3134;DHT22;1577;49.912;10.924;2023-05-21T08:18:39;26.70;89.50
3134;DHT22;1577;49.912;10.924;2023-05-21T08:21:04;26.30;89.70
3134;DHT22;1577;49.912;10.924;2023-05-21T08:23:30;26.30;90.20
3134;DHT22;1577;49.912;10.924;2023-05-21T08:25:55;26.20;90.30
3134;DHT22;1577;49.912;10.924;2023-05-21T08:28:21;26.50;90.10
3134;DHT22;1577;49.912;10.924;2023-05-21T08:30:47;26.90;88.80
3134;DHT22;1577;49.912;10.924;2023-05-21T08:33:16;27.30;88.00
3134;DHT22;1577;49.912;10.924;2023-05-21T08:35:42;27.70;89.50
3134;DHT22;1577;49.912;10.924;2023-05-21T08:38:08;27.90;88.90
3134;DHT22;1577;49.912;10.924;2023-05-21T08:40:33;28.20;85.60
3134;DHT22;1577;49.912;10.924;2023-05-21T08:43:00;28.20;84.10
3134;DHT22;1577;49.912;10.924;2023-05-21T08:45:26;28.50;84.40
3134;DHT22;1577;49.912;10.924;2023-05-21T08:47:56;28.90;81.10
3134;DHT22;1577;49.912;10.924;2023-05-21T08:50:25;29.10;82.00
3134;DHT22;1577;49.912;10.924;2023-05-21T08:52:51;29.50;78.00
3134;DHT22;1577;49.912;10.924;2023-05-21T08:55:17;29.80;77.50
3134;DHT22;1577;49.912;10.924;2023-05-21T08:57:43;30.30;77.40
3134;DHT22;1577;49.912;10.924;2023-05-21T09:00:10;30.30;74.80
3134;DHT22;1577;49.912;10.924;2023-05-21T09:02:37;30.20;74.40
3134;DHT22;1577;49.912;10.924;2023-05-21T09:05:05;30.20;73.50
3134;DHT22;1577;49.912;10.924;2023-05-21T09:07:37;30.30;74.00
3134;DHT22;1577;49.912;10.924;2023-05-21T09:10:06;30.60;75.20
3134;DHT22;1577;49.912;10.924;2023-05-21T09:12:34;30.90;72.10
3134;DHT22;1577;49.912;10.924;2023-05-21T09:15:00;31.00;71.30
3134;DHT22;1577;49.912;10.924;2023-05-21T09:17:27;31.10;71.60
3134;DHT22;1577;49.912;10.924;2023-05-21T09:20:12;31.20;71.90
3134;DHT22;1577;49.912;10.924;2023-05-21T09:22:43;31.10;69.00
3134;DHT22;1577;49.912;10.924;2023-05-21T09:25:10;31.00;69.70
3134;DHT22;1577;49.912;10.924;2023-05-21T09:27:36;31.00;69.40
3134;DHT22;1577;49.912;10.924;2023-05-21T09:30:04;31.10;70.50
3134;DHT22;1577;49.912;10.924;2023-05-21T09:32:33;31.40;71.40
3134;DHT22;1577;49.912;10.924;2023-05-21T09:35:09;31.60;69.40
3134;DHT22;1577;49.912;10.924;2023-05-21T09:37:42;31.80;65.10
3134;DHT22;1577;49.912;10.924;2023-05-21T09:40:13;31.80;66.80
3134;DHT22;1577;49.912;10.924;2023-05-21T09:42:41;31.50;67.70
3134;DHT22;1577;49.912;10.924;2023-05-21T09:45:08;31.20;68.80
3134;DHT22;1577;49.912;10.924;2023-05-21T09:47:40;30.90;68.20
3134;DHT22;1577;49.912;10.924;2023-05-21T09:50:10;30.70;68.60
3134;DHT22;1577;49.912;10.924;2023-05-21T09:52:37;30.70;68.90
3134;DHT22;1577;49.912;10.924;2023-05-21T09:55:09;30.50;69.50
3134;DHT22;1577;49.912;10.924;2023-05-21T09:57:48;30.70;69.40
3134;DHT22;1577;49.912;10.924;2023-05-21T10:00:18;31.00;69.20
3134;DHT22;1577;49.912;10.924;2023-05-21T10:02:45;31.20;65.00
3134;DHT22;1577;49.912;10.924;2023-05-21T10:05:14;31.10;66.40
3134;DHT22;1577;49.912;10.924;2023-05-21T10:07:51;30.60;66.60
3134;DHT22;1577;49.912;10.924;2023-05-21T10:10:21;30.10;67.40
3134;DHT22;1577;49.912;10.924;2023-05-21T10:12:53;29.60;68.30
3134;DHT22;1577;49.912;10.924;2023-05-21T10:15:23;29.20;69.60
3134;DHT22;1577;49.912;10.924;2023-05-21T10:17:48;28.80;71.20
3134;DHT22;1577;49.912;10.924;2023-05-21T10:20:18;28.80;71.70
3134;DHT22;1577;49.912;10.924;2023-05-21T10:22:45;28.80;71.10
3134;DHT22;1577;49.912;10.924;2023-05-21T10:25:12;28.80;71.00
3134;DHT22;1577;49.912;10.924;2023-05-21T10:27:38;28.80;70.90
3134;DHT22;1577;49.912;10.924;2023-05-21T10:30:06;28.70;72.00
3134;DHT22;1577;49.912;10.924;2023-05-21T10:32:33;28.60;71.70
3134;DHT22;1577;49.912;10.924;2023-05-21T10:34:59;28.60;72.60
3134;DHT22;1577;49.912;10.924;2023-05-21T10:37:25;28.70;71.60
3134;DHT22;1577;49.912;10.924;2023-05-21T10:39:57;28.60;71.70
3134;DHT22;1577;49.912;10.924;2023-05-21T10:45:25;28.50;72.70
3134;DHT22;1577;49.912;10.924;2023-05-21T10:51:35;28.60;72.60
3134;DHT22;1577;49.912;10.924;2023-05-21T10:54:37;28.40;72.80
3134;DHT22;1577;49.912;10.924;2023-05-21T10:59:57;28.70;73.80
3134;DHT22;1577;49.912;10.924;2023-05-21T11:02:25;28.80;73.10
3134;DHT22;1577;49.912;10.924;2023-05-21T11:04:58;28.80;72.20
3134;DHT22;1577;49.912;10.924;2023-05-21T11:10:35;28.60;73.60
3134;DHT22;1577;49.912;10.924;2023-05-21T11:13:12;28.60;71.70
3134;DHT22;1577;49.912;10.924;2023-05-21T11:21:06;28.10;73.60
3134;DHT22;1577;49.912;10.924;2023-05-21T11:23:55;28.10;75.00
3134;DHT22;1577;49.912;10.924;2023-05-21T11:26:58;28.20;74.90
3134;DHT22;1577;49.912;10.924;2023-05-21T11:29:12;28.30;74.70
3134;DHT22;1577;49.912;10.924;2023-05-21T11:31:40;28.20;73.50
3134;DHT22;1577;49.912;10.924;2023-05-21T11:34:13;28.00;74.30
3134;DHT22;1577;49.912;10.924;2023-05-21T11:36:46;27.90;74.70
3134;DHT22;1577;49.912;10.924;2023-05-21T11:39:13;28.00;74.30
3134;DHT22;1577;49.912;10.924;2023-05-21T11:44:20;28.00;72.90
3134;DHT22;1577;49.912;10.924;2023-05-21T11:47:02;28.10;72.10
3134;DHT22;1577;49.912;10.924;2023-05-21T11:49:29;28.10;72.90
3134;DHT22;1577;49.912;10.924;2023-05-21T11:51:55;28.20;74.20
3134;DHT22;1577;49.912;10.924;2023-05-21T11:54:21;28.30;71.20
3134;DHT22;1577;49.912;10.924;2023-05-21T11:56:48;28.30;71.10
3134;DHT22;1577;49.912;10.924;2023-05-21T11:59:14;28.20;70.70
3134;DHT22;1577;49.912;10.924;2023-05-21T12:01:43;28.10;71.30
3134;DHT22;1577;49.912;10.924;2023-05-21T12:04:09;28.10;72.10
3134;DHT22;1577;49.912;10.924;2023-05-21T12:06:40;28.10;71.90
3134;DHT22;1577;49.912;10.924;2023-05-21T12:09:08;28.20;71.00
3134;DHT22;1577;49.912;10.924;2023-05-21T12:11:35;28.40;70.70
3134;DHT22;1577;49.912;10.924;2023-05-21T12:14:00;28.50;70.20
3134;DHT22;1577;49.912;10.924;2023-05-21T12:16:26;28.40;70.80
3134;DHT22;1577;49.912;10.924;2023-05-21T12:18:53;28.50;70.60
3134;DHT22;1577;49.912;10.924;2023-05-21T12:21:18;28.30;70.10
3134;DHT22;1577;49.912;10.924;2023-05-21T12:23:44;28.20;71.30
3134;DHT22;1577;49.912;10.924;2023-05-21T12:26:14;28.10;71.60
3134;DHT22;1577;49.912;10.924;2023-05-21T12:28:39;28.20;72.30
3134;DHT22;1577;49.912;10.924;2023-05-21T12:31:05;28.10;75.70
3134;DHT22;1577;49.912;10.924;2023-05-21T12:33:36;27.70;76.20
3134;DHT22;1577;49.912;10.924;2023-05-21T12:36:02;27.50;77.20
3134;DHT22;1577;49.912;10.924;2023-05-21T12:38:31;27.20;77.50
3134;DHT22;1577;49.912;10.924;2023-05-21T12:41:03;27.10;78.90
3134;DHT22;1577;49.912;10.924;2023-05-21T12:43:32;27.20;79.20
3134;DHT22;1577;49.912;10.924;2023-05-21T12:45:58;27.10;78.30
3134;DHT22;1577;49.912;10.924;2023-05-21T12:48:26;27.20;79.00
3134;DHT22;1577;49.912;10.924;2023-05-21T12:50:52;27.30;78.70
3134;DHT22;1577;49.912;10.924;2023-05-21T12:53:17;27.30;78.30
3134;DHT22;1577;49.912;10.924;2023-05-21T12:55:43;27.50;79.20
3134;DHT22;1577;49.912;10.924;2023-05-21T12:58:12;27.60;77.60
3134;DHT22;1577;49.912;10.924;2023-05-21T13:00:40;27.40;78.00
3134;DHT22;1577;49.912;10.924;2023-05-21T13:03:07;27.30;78.40
3134;DHT22;1577;49.912;10.924;2023-05-21T13:05:33;27.40;77.70
3134;DHT22;1577;49.912;10.924;2023-05-21T13:07:59;27.30;77.00
3134;DHT22;1577;49.912;10.924;2023-05-21T13:10:24;27.20;77.10
3134;DHT22;1577;49.912;10.924;2023-05-21T13:12:50;27.20;77.00
3134;DHT22;1577;49.912;10.924;2023-05-21T13:15:15;27.20;76.60
3134;DHT22;1577;49.912;10.924;2023-05-21T13:17:41;27.20;76.00
3134;DHT22;1577;49.912;10.924;2023-05-21T13:20:14;27.30;76.80
3134;DHT22;1577;49.912;10.924;2023-05-21T13:22:42;27.30;78.40
3134;DHT22;1577;49.912;10.924;2023-05-21T13:25:09;27.40;77.20
3134;DHT22;1577;49.912;10.924;2023-05-21T13:27:36;27.50;74.80
3134;DHT22;1577;49.912;10.924;2023-05-21T13:30:05;27.60;75.30
3134;DHT22;1577;49.912;10.924;2023-05-21T13:32:34;27.80;73.20
3134;DHT22;1577;49.912;10.924;2023-05-21T13:35:00;27.90;73.60
3134;DHT22;1577;49.912;10.924;2023-05-21T13:37:29;27.90;72.00
3134;DHT22;1577;49.912;10.924;2023-05-21T13:39:55;27.90;71.50
3134;DHT22;1577;49.912;10.924;2023-05-21T13:42:20;28.10;71.50
3134;DHT22;1577;49.912;10.924;2023-05-21T13:44:46;28.20;71.70
3134;DHT22;1577;49.912;10.924;2023-05-21T13:47:12;28.10;70.20
3134;DHT22;1577;49.912;10.924;2023-05-21T13:49:38;28.10;71.00
3134;DHT22;1577;49.912;10.924;2023-05-21T13:52:04;28.10;70.00
3134;DHT22;1577;49.912;10.924;2023-05-21T13:54:30;28.00;70.00
3134;DHT22;1577;49.912;10.924;2023-05-21T13:56:56;28.10;71.30
3134;DHT22;1577;49.912;10.924;2023-05-21T13:59:23;28.20;71.50
3134;DHT22;1577;49.912;10.924;2023-05-21T14:01:48;28.40;70.80
3134;DHT22;1577;49.912;10.924;2023-05-21T14:04:17;28.40;70.40
3134;DHT22;1577;49.912;10.924;2023-05-21T14:06:43;28.40;69.80
3134;DHT22;1577;49.912;10.924;2023-05-21T14:09:09;28.30;69.50
3134;DHT22;1577;49.912;10.924;2023-05-21T14:11:34;28.20;70.20
3134;DHT22;1577;49.912;10.924;2023-05-21T14:14:00;28.20;69.80
3134;DHT22;1577;49.912;10.924;2023-05-21T14:16:27;28.20;69.30
3134;DHT22;1577;49.912;10.924;2023-05-21T14:18:53;28.10;70.60
3134;DHT22;1577;49.912;10.924;2023-05-21T14:21:19;28.10;70.10
3134;DHT22;1577;49.912;10.924;2023-05-21T14:23:45;28.20;69.90
3134;DHT22;1577;49.912;10.924;2023-05-21T14:26:15;28.10;70.00
3134;DHT22;1577;49.912;10.924;2023-05-21T14:28:41;28.10;69.60
3134;DHT22;1577;49.912;10.924;2023-05-21T14:31:07;28.10;69.50
3134;DHT22;1577;49.912;10.924;2023-05-21T14:33:34;28.20;70.00
3134;DHT22;1577;49.912;10.924;2023-05-21T14:36:00;28.20;70.00
3134;DHT22;1577;49.912;10.924;2023-05-21T14:38:29;28.30;70.30
3134;DHT22;1577;49.912;10.924;2023-05-21T14:40:54;28.30;70.00
3134;DHT22;1577;49.912;10.924;2023-05-21T14:43:24;28.10;69.70
3134;DHT22;1577;49.912;10.924;2023-05-21T14:45:49;27.90;70.70
3134;DHT22;1577;49.912;10.924;2023-05-21T14:48:18;27.80;70.70
3134;DHT22;1577;49.912;10.924;2023-05-21T14:50:47;27.70;70.90
3134;DHT22;1577;49.912;10.924;2023-05-21T14:53:14;27.70;71.50
3134;DHT22;1577;49.912;10.924;2023-05-21T14:55:39;27.60;71.30
3134;DHT22;1577;49.912;10.924;2023-05-21T14:58:05;27.60;71.10
3134;DHT22;1577;49.912;10.924;2023-05-21T15:00:35;27.60;71.40
3134;DHT22;1577;49.912;10.924;2023-05-21T15:03:05;27.50;71.90
3134;DHT22;1577;49.912;10.924;2023-05-21T15:05:31;27.40;71.40
3134;DHT22;1577;49.912;10.924;2023-05-21T15:07:56;27.40;72.50
3134;DHT22;1577;49.912;10.924;2023-05-21T15:10:26;27.40;72.90
3134;DHT22;1577;49.912;10.924;2023-05-21T15:12:52;27.40;73.80
3134;DHT22;1577;49.912;10.924;2023-05-21T15:15:18;27.40;73.50
3134;DHT22;1577;49.912;10.924;2023-05-21T15:17:48;27.50;72.50
3134;DHT22;1577;49.912;10.924;2023-05-21T15:20:15;27.50;72.50
3134;DHT22;1577;49.912;10.924;2023-05-21T15:22:40;27.50;72.90
3134;DHT22;1577;49.912;10.924;2023-05-21T15:25:07;27.40;72.80
3134;DHT22;1577;49.912;10.924;2023-05-21T15:27:33;27.40;71.80
3134;DHT22;1577;49.912;10.924;2023-05-21T15:29:59;27.40;71.90
3134;DHT22;1577;49.912;10.924;2023-05-21T15:32:25;27.30;72.20
3134;DHT22;1577;49.912;10.924;2023-05-21T15:34:53;27.30;72.80
3134;DHT22;1577;49.912;10.924;2023-05-21T15:37:19;27.30;72.80
3134;DHT22;1577;49.912;10.924;2023-05-21T15:39:46;27.20;73.20
3134;DHT22;1577;49.912;10.924;2023-05-21T15:42:13;27.20;73.70
3134;DHT22;1577;49.912;10.924;2023-05-21T15:44:39;27.20;74.30
3134;DHT22;1577;49.912;10.924;2023-05-21T15:47:05;27.20;74.70
3134;DHT22;1577;49.912;10.924;2023-05-21T15:49:30;27.20;74.60
3134;DHT22;1577;49.912;10.924;2023-05-21T15:51:56;27.20;73.40
3134;DHT22;1577;49.912;10.924;2023-05-21T15:54:32;27.20;72.80
3134;DHT22;1577;49.912;10.924;2023-05-21T15:56:57;27.10;72.90
3134;DHT22;1577;49.912;10.924;2023-05-21T15:59:23;27.10;73.20
3134;DHT22;1577;49.912;10.924;2023-05-21T16:01:51;27.00;73.40
3134;DHT22;1577;49.912;10.924;2023-05-21T16:04:17;26.90;73.80
3134;DHT22;1577;49.912;10.924;2023-05-21T16:06:46;26.90;73.90